createdAt,value
2018-11-28T06:48:42.243Z,22.00
2018-11-28T06:51:17.015Z,21.50
2018-11-28T06:53:50.058Z,18.60
2018-11-28T06:56:22.700Z,16.20
2018-11-28T06:58:56.098Z,15.20
2018-11-28T07:01:28.992Z,15.00
2018-11-28T07:04:00.623Z,16.90
2018-11-28T07:06:38.775Z,18.50
2018-11-28T07:09:10.524Z,19.40
2018-11-28T07:11:41.705Z,19.90
2018-11-28T07:14:11.774Z,20.20
2018-11-28T07:16:41.088Z,20.70
2018-11-28T07:19:12.051Z,20.80
2018-11-28T07:21:42.042Z,20.90
2018-11-28T07:24:11.765Z,21.10
2018-11-28T07:26:41.502Z,21.40
2018-11-28T07:29:11.123Z,21.60
2018-11-28T07:31:40.684Z,21.70
2018-11-28T07:34:10.630Z,21.80
2018-11-28T07:36:40.507Z,21.90
2018-11-28T07:39:10.233Z,22.00
2018-11-28T07:41:39.940Z,22.00
2018-11-28T07:44:09.641Z,22.00
2018-11-28T07:46:39.362Z,22.00
2018-11-28T07:49:09.429Z,22.20
2018-11-28T07:51:39.448Z,22.30
2018-11-28T07:54:09.826Z,22.30
2018-11-28T07:56:39.952Z,22.10
2018-11-28T07:59:09.953Z,22.10
2018-11-28T08:01:39.793Z,22.20
2018-11-28T08:04:09.636Z,22.30
2018-11-28T08:06:38.960Z,22.20
2018-11-28T08:09:09.128Z,22.30
2018-11-28T08:11:39.384Z,22.30
2018-11-28T08:14:09.416Z,22.30
2018-11-28T08:16:38.912Z,22.30
2018-11-28T08:19:09.088Z,22.40
2018-11-28T08:21:38.528Z,22.50
2018-11-28T08:24:08.200Z,22.60
2018-11-28T08:26:37.618Z,22.60
2018-11-28T08:29:07.362Z,22.50
2018-11-28T08:31:37.373Z,22.60
2018-11-28T08:34:08.003Z,22.60
2018-11-28T08:36:37.410Z,22.60
2018-11-28T08:39:08.407Z,22.70
2018-11-28T08:41:38.064Z,22.80
2018-11-28T08:44:07.746Z,22.80
2018-11-28T08:46:38.112Z,22.90
2018-11-28T08:49:07.438Z,22.90
2018-11-28T08:51:37.532Z,22.90
2018-11-28T08:54:07.114Z,22.90
2018-11-28T08:56:36.623Z,22.90
2018-11-28T08:59:06.598Z,22.90
2018-11-28T09:01:36.316Z,22.90
2018-11-28T09:04:06.420Z,23.00
2018-11-28T09:06:36.229Z,23.00
2018-11-28T09:09:07.510Z,22.90
2018-11-28T09:11:37.345Z,23.10
2018-11-28T09:14:06.775Z,23.20
2018-11-28T09:16:36.357Z,23.30
2018-11-28T09:19:05.915Z,23.40
2018-11-28T09:21:35.353Z,23.40
2018-11-28T09:24:05.004Z,23.40
2018-11-28T09:26:34.728Z,23.40
2018-11-28T09:29:04.543Z,23.40
2018-11-28T09:31:34.244Z,23.40
2018-11-28T09:34:09.015Z,23.50
2018-11-28T09:36:38.789Z,23.50
2018-11-28T09:39:08.679Z,23.40
2018-11-28T09:41:38.183Z,23.40
2018-11-28T09:44:07.674Z,23.50
2018-11-28T09:46:37.736Z,23.50
2018-11-28T09:49:15.306Z,23.50
2018-11-28T09:51:45.233Z,23.50
2018-11-28T09:54:14.922Z,23.30
2018-11-28T09:56:44.657Z,23.20
2018-11-28T09:59:15.021Z,23.20
2018-11-28T10:01:44.622Z,23.30
2018-11-28T10:04:14.106Z,23.30
2018-11-28T10:06:44.111Z,23.30
2018-11-28T10:09:13.556Z,23.20
2018-11-28T10:11:43.235Z,23.30
2018-11-28T10:14:12.853Z,23.30
2018-11-28T10:16:42.825Z,23.30
2018-11-28T10:19:12.116Z,23.40
2018-11-28T10:21:42.276Z,23.40
2018-11-28T10:24:11.819Z,23.30
2018-11-28T10:26:41.418Z,23.40
2018-11-28T10:29:11.017Z,23.40
2018-11-28T10:31:40.423Z,23.40
2018-11-28T10:34:10.284Z,23.40
2018-11-28T10:36:39.630Z,23.40
2018-11-28T10:39:10.194Z,23.40
2018-11-28T10:41:39.958Z,23.40
2018-11-28T10:44:09.644Z,23.50
2018-11-28T10:46:39.714Z,23.50
2018-11-28T10:49:09.119Z,23.50
2018-11-28T10:51:38.661Z,23.50
2018-11-28T10:54:08.372Z,23.50
2018-11-28T10:56:37.978Z,23.50
2018-11-28T10:59:08.314Z,23.60
2018-11-28T11:01:42.262Z,23.70
2018-11-28T11:04:16.276Z,23.60
2018-11-28T11:06:49.989Z,23.40
2018-11-28T11:09:23.874Z,23.40
2018-11-28T11:11:57.847Z,23.40
2018-11-28T11:14:31.798Z,23.30
2018-11-28T11:17:01.664Z,23.30
2018-11-28T11:19:31.591Z,23.30
2018-11-28T11:22:01.221Z,23.40
2018-11-28T11:24:31.145Z,23.30
2018-11-28T11:27:00.999Z,23.10
2018-11-28T11:29:31.008Z,23.10
2018-11-28T11:32:00.536Z,23.10
2018-11-28T11:34:30.384Z,23.10
2018-11-28T11:36:59.708Z,23.00
2018-11-28T11:39:29.213Z,23.00
2018-11-28T11:41:59.025Z,22.90
2018-11-28T11:44:28.444Z,22.90
2018-11-28T11:46:58.112Z,23.00
2018-11-28T11:49:28.175Z,22.90
2018-11-28T11:51:57.407Z,22.90
2018-11-28T11:54:27.041Z,22.90
2018-11-28T11:56:56.605Z,21.00
2018-11-28T11:59:27.055Z,19.40
2018-11-28T12:01:56.681Z,20.50
2018-11-28T12:04:26.368Z,21.60
2018-11-28T12:06:56.143Z,22.30
2018-11-28T12:09:26.372Z,22.60
2018-11-28T12:11:56.558Z,22.60
2018-11-28T12:14:26.201Z,22.70
2018-11-28T12:16:56.135Z,22.90
2018-11-28T12:19:26.368Z,22.90
2018-11-28T12:21:56.256Z,22.90
2018-11-28T12:24:26.385Z,22.90
2018-11-28T12:26:56.065Z,22.80
2018-11-28T12:29:26.322Z,22.80
2018-11-28T12:31:56.279Z,22.80
2018-11-28T12:34:26.096Z,23.00
2018-11-28T12:36:55.690Z,23.10
2018-11-28T12:39:25.049Z,23.30
2018-11-28T12:41:54.759Z,23.40
2018-11-28T12:44:24.259Z,23.40
2018-11-28T12:46:53.998Z,23.40
2018-11-28T12:49:23.614Z,23.50
2018-11-28T12:51:53.395Z,23.40
2018-11-28T12:54:23.495Z,23.20
2018-11-28T12:56:53.243Z,23.10
2018-11-28T12:59:23.423Z,23.00
2018-11-28T13:01:53.659Z,23.00
2018-11-28T13:04:29.777Z,23.00
2018-11-28T13:06:59.396Z,23.00
2018-11-28T13:09:29.686Z,23.20
2018-11-28T13:12:00.085Z,23.10
2018-11-28T13:14:28.931Z,23.30
2018-11-28T13:16:58.775Z,23.20
2018-11-28T13:19:28.440Z,23.10
2018-11-28T13:21:58.258Z,23.20
2018-11-28T13:24:27.772Z,23.40
2018-11-28T13:26:59.195Z,23.50
2018-11-28T13:29:27.593Z,23.60
2018-11-28T13:31:56.885Z,23.70
2018-11-28T13:34:27.136Z,23.70
2018-11-28T13:36:56.844Z,23.70
2018-11-28T13:39:26.518Z,23.70
2018-11-28T13:41:56.651Z,23.80
2018-11-28T13:44:26.754Z,23.70
2018-11-28T13:46:56.892Z,23.50
2018-11-28T13:49:26.486Z,23.50
2018-11-28T13:51:56.034Z,23.50
2018-11-28T13:54:25.513Z,23.40
2018-11-28T13:56:59.743Z,23.40
2018-11-28T13:59:24.440Z,23.30
2018-11-28T14:01:53.805Z,23.30
2018-11-28T14:04:23.522Z,23.30
2018-11-28T14:06:53.337Z,23.40
2018-11-28T14:09:22.992Z,23.50
2018-11-28T14:11:53.044Z,23.50
2018-11-28T14:14:22.820Z,23.40
2018-11-28T14:16:52.664Z,23.40
2018-11-28T14:19:22.251Z,23.20
2018-11-28T14:21:51.646Z,23.30
2018-11-28T14:24:21.483Z,23.30
2018-11-28T14:26:50.941Z,23.40
2018-11-28T14:29:20.575Z,23.50
2018-11-28T14:31:50.841Z,23.30
2018-11-28T14:34:20.748Z,23.30
2018-11-28T14:36:50.612Z,23.40
2018-11-28T14:39:20.601Z,23.50
2018-11-28T14:41:49.992Z,23.60
2018-11-28T14:44:19.640Z,23.50
2018-11-28T14:46:49.147Z,23.50
2018-11-28T14:49:18.808Z,23.40
2018-11-28T14:51:48.553Z,23.50
2018-11-28T14:54:17.918Z,23.60
2018-11-28T14:56:47.413Z,23.50
2018-11-28T14:59:17.630Z,23.50
2018-11-28T15:01:47.596Z,23.50
2018-11-28T15:04:17.172Z,23.50
2018-11-28T15:06:52.363Z,23.60
2018-11-28T15:09:27.193Z,23.40
2018-11-28T15:11:56.859Z,23.40
2018-11-28T15:14:26.714Z,23.40
2018-11-28T15:16:56.506Z,23.30
2018-11-28T15:19:25.955Z,23.30
2018-11-28T15:21:56.358Z,23.30
2018-11-28T15:24:26.367Z,23.30
2018-11-28T15:26:56.139Z,23.20
2018-11-28T15:29:26.970Z,23.20
2018-11-28T15:31:56.685Z,23.30
2018-11-28T15:34:26.116Z,23.30
2018-11-28T15:36:56.154Z,23.30
2018-11-28T15:39:25.647Z,23.30
2018-11-28T15:41:55.331Z,23.60
2018-11-28T15:44:25.195Z,23.60
2018-11-28T15:46:55.528Z,23.70
2018-11-28T15:49:25.401Z,23.70
2018-11-28T15:51:54.754Z,23.70
2018-11-28T15:54:24.721Z,23.70
2018-11-28T15:56:54.524Z,23.60
2018-11-28T15:59:26.315Z,23.50
2018-11-28T16:01:55.952Z,23.50
2018-11-28T16:04:25.163Z,23.50
2018-11-28T16:06:55.007Z,23.40
2018-11-28T16:09:28.522Z,23.40
2018-11-28T16:11:57.904Z,23.40
2018-11-28T16:14:27.326Z,23.40
2018-11-28T16:16:56.836Z,23.40
2018-11-28T16:19:26.629Z,23.30
2018-11-28T16:21:57.059Z,23.30
2018-11-28T16:24:27.002Z,23.50
2018-11-28T16:26:56.369Z,23.50
2018-11-28T16:29:26.208Z,23.50
2018-11-28T16:31:55.721Z,23.40
2018-11-28T16:34:25.163Z,23.50
2018-11-28T16:36:54.807Z,23.50
2018-11-28T16:39:24.243Z,23.50
2018-11-28T16:41:54.088Z,23.50
2018-11-28T16:44:23.578Z,23.60
2018-11-28T16:46:52.794Z,23.70
2018-11-28T16:49:22.558Z,23.70
2018-11-28T16:51:51.961Z,23.50
2018-11-28T16:54:21.375Z,23.40
2018-11-28T16:56:50.645Z,23.40
2018-11-28T16:59:20.226Z,23.40
2018-11-28T17:01:50.631Z,23.50
2018-11-28T17:04:20.126Z,23.50
2018-11-28T17:06:49.979Z,23.50
2018-11-28T17:09:19.863Z,23.50
2018-11-28T17:11:49.684Z,23.40
2018-11-28T17:14:19.081Z,23.40
2018-11-28T17:16:48.251Z,23.40
2018-11-28T17:19:18.483Z,23.40
2018-11-28T17:21:47.843Z,23.40
2018-11-28T17:24:17.234Z,23.40
2018-11-28T17:26:46.832Z,23.40
